sensor_id;sensor_type;location;lat;lon;timestamp;P1;P2;P0
77413;PMS7003;66486;49.992;19.164;2023-05-10T00:01:10;22.50;22.25;15.00
77413;PMS7003;66486;49.992;19.164;2023-05-10T00:03:36;15.40;15.40;12.40
77413;PMS7003;66486;49.992;19.164;2023-05-10T00:06:02;18.50;17.00;12.25
77413;PMS7003;66486;49.992;19.164;2023-05-10T00:08:28;13.00;12.80;11.20
77413;PMS7003;66486;49.992;19.164;2023-05-10T00:10:54;21.25;20.50;15.25
77413;PMS7003;66486;49.992;19.164;2023-05-10T00:13:20;15.20;15.20;11.20
77413;PMS7003;66486;49.992;19.164;2023-05-10T00:15:46;17.00;17.00;12.60
77413;PMS7003;66486;49.992;19.164;2023-05-10T00:18:12;20.20;19.00;12.20
77413;PMS7003;66486;49.992;19.164;2023-05-10T00:20:38;26.00;24.50;18.00
77413;PMS7003;66486;49.992;19.164;2023-05-10T00:23:04;27.00;27.00;18.60
77413;PMS7003;66486;49.992;19.164;2023-05-10T00:25:30;24.00;22.00;15.00
77413;PMS7003;66486;49.992;19.164;2023-05-10T00:27:56;11.60;9.40;1.80
77413;PMS7003;66486;49.992;19.164;2023-05-10T00:30:22;19.40;17.00;10.00
77413;PMS7003;66486;49.992;19.164;2023-05-10T00:32:49;15.00;15.00;11.20
77413;PMS7003;66486;49.992;19.164;2023-05-10T00:35:15;25.00;24.00;15.40
77413;PMS7003;66486;49.992;19.164;2023-05-10T00:37:41;20.60;20.00;14.60
77413;PMS7003;66486;49.992;19.164;2023-05-10T00:40:07;17.60;17.60;13.80
77413;PMS7003;66486;49.992;19.164;2023-05-10T00:42:34;24.20;24.20;15.60
77413;PMS7003;66486;49.992;19.164;2023-05-10T00:44:59;21.75;21.25;12.25
77413;PMS7003;66486;49.992;19.164;2023-05-10T00:47:25;21.40;20.60;16.00
77413;PMS7003;66486;49.992;19.164;2023-05-10T00:49:51;21.75;21.25;15.00
77413;PMS7003;66486;49.992;19.164;2023-05-10T00:52:17;18.20;18.20;12.40
77413;PMS7003;66486;49.992;19.164;2023-05-10T00:54:43;20.50;20.50;15.50
77413;PMS7003;66486;49.992;19.164;2023-05-10T00:57:10;18.80;16.80;10.80
77413;PMS7003;66486;49.992;19.164;2023-05-10T00:59:36;20.60;20.60;12.40
77413;PMS7003;66486;49.992;19.164;2023-05-10T01:02:02;20.20;17.40;11.40
77413;PMS7003;66486;49.992;19.164;2023-05-10T01:04:28;18.25;18.25;13.00
77413;PMS7003;66486;49.992;19.164;2023-05-10T01:06:56;21.40;21.40;13.00
77413;PMS7003;66486;49.992;19.164;2023-05-10T01:09:21;29.00;27.00;19.50
77413;PMS7003;66486;49.992;19.164;2023-05-10T01:11:48;22.00;21.80;14.60
77413;PMS7003;66486;49.992;19.164;2023-05-10T01:14:15;24.80;24.00;15.40
77413;PMS7003;66486;49.992;19.164;2023-05-10T01:16:44;21.20;20.20;13.00
77413;PMS7003;66486;49.992;19.164;2023-05-10T01:19:17;22.40;20.60;13.00
77413;PMS7003;66486;49.992;19.164;2023-05-10T01:38:42;22.20;22.20;16.00
77413;PMS7003;66486;49.992;19.164;2023-05-10T01:41:16;21.40;21.40;14.20
77413;PMS7003;66486;49.992;19.164;2023-05-10T01:43:52;31.00;27.80;16.40
77413;PMS7003;66486;49.992;19.164;2023-05-10T01:46:32;27.00;25.80;16.40
77413;PMS7003;66486;49.992;19.164;2023-05-10T01:49:02;18.20;17.00;10.80
77413;PMS7003;66486;49.992;19.164;2023-05-10T01:51:36;21.40;20.60;12.80
77413;PMS7003;66486;49.992;19.164;2023-05-10T01:54:14;23.80;23.80;17.60
77413;PMS7003;66486;49.992;19.164;2023-05-10T01:56:44;26.20;26.20;15.60
77413;PMS7003;66486;49.992;19.164;2023-05-10T01:59:17;18.80;16.00;10.00
77413;PMS7003;66486;49.992;19.164;2023-05-10T02:01:45;23.00;22.00;14.40
77413;PMS7003;66486;49.992;19.164;2023-05-10T02:04:13;23.50;23.50;13.00
77413;PMS7003;66486;49.992;19.164;2023-05-10T02:06:42;28.50;24.50;16.25
77413;PMS7003;66486;49.992;19.164;2023-05-10T02:09:10;20.50;18.25;12.00
77413;PMS7003;66486;49.992;19.164;2023-05-10T02:11:38;27.20;25.00;16.00
77413;PMS7003;66486;49.992;19.164;2023-05-10T02:14:06;21.00;19.20;12.80
77413;PMS7003;66486;49.992;19.164;2023-05-10T02:16:34;16.60;15.00;11.60
77413;PMS7003;66486;49.992;19.164;2023-05-10T02:19:02;22.60;21.00;15.60
77413;PMS7003;66486;49.992;19.164;2023-05-10T02:21:29;24.40;24.20;17.60
77413;PMS7003;66486;49.992;19.164;2023-05-10T02:23:57;21.60;20.60;10.40
77413;PMS7003;66486;49.992;19.164;2023-05-10T02:26:24;21.75;19.25;13.00
77413;PMS7003;66486;49.992;19.164;2023-05-10T02:28:52;22.25;21.00;13.50
77413;PMS7003;66486;49.992;19.164;2023-05-10T02:31:19;27.50;21.75;15.75
77413;PMS7003;66486;49.992;19.164;2023-05-10T02:33:47;21.80;20.20;13.80
77413;PMS7003;66486;49.992;19.164;2023-05-10T02:36:14;27.25;26.00;16.75
77413;PMS7003;66486;49.992;19.164;2023-05-10T02:38:42;29.50;28.25;18.50
77413;PMS7003;66486;49.992;19.164;2023-05-10T02:41:09;24.25;22.75;16.00
77413;PMS7003;66486;49.992;19.164;2023-05-10T02:43:37;23.50;23.50;13.00
77413;PMS7003;66486;49.992;19.164;2023-05-10T02:46:06;24.80;23.60;16.80
77413;PMS7003;66486;49.992;19.164;2023-05-10T02:48:32;22.00;22.00;13.50
77413;PMS7003;66486;49.992;19.164;2023-05-10T02:51:00;24.00;24.00;15.67
77413;PMS7003;66486;49.992;19.164;2023-05-10T02:53:31;22.20;22.00;13.20
77413;PMS7003;66486;49.992;19.164;2023-05-10T02:56:00;18.20;15.60;12.60
77413;PMS7003;66486;49.992;19.164;2023-05-10T02:58:32;22.60;19.40;16.40
77413;PMS7003;66486;49.992;19.164;2023-05-10T03:01:00;21.40;21.40;13.80
77413;PMS7003;66486;49.992;19.164;2023-05-10T03:03:26;26.60;24.80;15.40
77413;PMS7003;66486;49.992;19.164;2023-05-10T03:05:52;20.75;20.50;13.00
77413;PMS7003;66486;49.992;19.164;2023-05-10T03:08:22;17.80;17.80;12.40
77413;PMS7003;66486;49.992;19.164;2023-05-10T03:11:00;17.75;17.75;13.50
77413;PMS7003;66486;49.992;19.164;2023-05-10T03:13:44;24.25;23.75;15.75
77413;PMS7003;66486;49.992;19.164;2023-05-10T03:16:37;21.75;21.25;15.50
77413;PMS7003;66486;49.992;19.164;2023-05-10T03:19:15;21.00;21.00;14.00
77413;PMS7003;66486;49.992;19.164;2023-05-10T03:21:47;21.50;21.50;15.25
77413;PMS7003;66486;49.992;19.164;2023-05-10T03:24:17;20.20;20.20;15.20
77413;PMS7003;66486;49.992;19.164;2023-05-10T03:26:46;26.75;24.50;16.50
77413;PMS7003;66486;49.992;19.164;2023-05-10T03:29:13;24.00;23.25;15.25
77413;PMS7003;66486;49.992;19.164;2023-05-10T03:31:40;26.00;24.25;15.75
77413;PMS7003;66486;49.992;19.164;2023-05-10T03:34:06;15.40;15.00;11.20
77413;PMS7003;66486;49.992;19.164;2023-05-10T03:36:32;24.00;23.25;17.00
77413;PMS7003;66486;49.992;19.164;2023-05-10T03:38:59;23.20;23.20;16.40
77413;PMS7003;66486;49.992;19.164;2023-05-10T03:41:25;20.80;19.40;13.40
77413;PMS7003;66486;49.992;19.164;2023-05-10T03:43:51;18.75;18.75;15.00
77413;PMS7003;66486;49.992;19.164;2023-05-10T03:46:17;22.00;21.25;16.00
77413;PMS7003;66486;49.992;19.164;2023-05-10T03:48:43;16.80;16.60;13.60
77413;PMS7003;66486;49.992;19.164;2023-05-10T03:51:09;25.75;25.75;17.50
77413;PMS7003;66486;49.992;19.164;2023-05-10T03:53:35;23.00;21.00;15.00
77413;PMS7003;66486;49.992;19.164;2023-05-10T03:56:01;18.00;18.00;13.00
77413;PMS7003;66486;49.992;19.164;2023-05-10T03:58:27;18.40;17.60;13.00
77413;PMS7003;66486;49.992;19.164;2023-05-10T04:00:52;19.00;19.00;13.00
77413;PMS7003;66486;49.992;19.164;2023-05-10T04:03:18;17.00;17.00;13.00
77413;PMS7003;66486;49.992;19.164;2023-05-10T04:05:45;17.80;15.80;12.20
77413;PMS7003;66486;49.992;19.164;2023-05-10T04:08:11;20.00;18.00;12.67
77413;PMS7003;66486;49.992;19.164;2023-05-10T04:10:37;25.40;25.40;15.00
77413;PMS7003;66486;49.992;19.164;2023-05-10T04:13:03;22.50;20.25;13.00
77413;PMS7003;66486;49.992;19.164;2023-05-10T04:15:29;21.60;20.20;14.60
77413;PMS7003;66486;49.992;19.164;2023-05-10T04:17:55;25.00;23.50;15.00
77413;PMS7003;66486;49.992;19.164;2023-05-10T04:20:21;19.00;17.40;10.40
77413;PMS7003;66486;49.992;19.164;2023-05-10T04:22:47;21.50;19.00;13.00
77413;PMS7003;66486;49.992;19.164;2023-05-10T04:25:13;29.40;28.60;20.20
77413;PMS7003;66486;49.992;19.164;2023-05-10T04:27:39;24.50;23.00;14.50
77413;PMS7003;66486;49.992;19.164;2023-05-10T04:30:05;24.80;22.00;16.40
77413;PMS7003;66486;49.992;19.164;2023-05-10T04:32:32;20.40;20.20;13.40
77413;PMS7003;66486;49.992;19.164;2023-05-10T04:34:58;27.20;23.60;16.60
77413;PMS7003;66486;49.992;19.164;2023-05-10T04:37:23;24.00;24.00;16.50
77413;PMS7003;66486;49.992;19.164;2023-05-10T04:39:50;24.40;23.20;15.80
77413;PMS7003;66486;49.992;19.164;2023-05-10T04:42:16;26.50;25.00;16.00
77413;PMS7003;66486;49.992;19.164;2023-05-10T04:44:42;20.60;20.60;16.00
77413;PMS7003;66486;49.992;19.164;2023-05-10T04:47:08;26.50;24.75;16.25
77413;PMS7003;66486;49.992;19.164;2023-05-10T04:49:34;24.40;23.00;15.20
77413;PMS7003;66486;49.992;19.164;2023-05-10T04:51:59;25.00;25.00;17.00
77413;PMS7003;66486;49.992;19.164;2023-05-10T04:54:25;17.60;17.60;15.60
77413;PMS7003;66486;49.992;19.164;2023-05-10T04:56:51;26.50;24.75;16.00
77413;PMS7003;66486;49.992;19.164;2023-05-10T04:59:18;19.00;18.40;13.80
77413;PMS7003;66486;49.992;19.164;2023-05-10T05:01:43;10.75;9.75;5.00
77413;PMS7003;66486;49.992;19.164;2023-05-10T05:04:09;22.40;20.00;12.80
77413;PMS7003;66486;49.992;19.164;2023-05-10T05:06:35;19.50;19.50;14.25
77413;PMS7003;66486;49.992;19.164;2023-05-10T05:09:01;21.40;20.20;13.40
77413;PMS7003;66486;49.992;19.164;2023-05-10T05:11:27;23.80;23.80;15.60
77413;PMS7003;66486;49.992;19.164;2023-05-10T05:13:53;24.60;23.20;13.40
77413;PMS7003;66486;49.992;19.164;2023-05-10T05:16:19;15.75;15.25;12.00
77413;PMS7003;66486;49.992;19.164;2023-05-10T05:18:45;19.60;18.60;13.00
77413;PMS7003;66486;49.992;19.164;2023-05-10T05:21:15;22.25;21.25;14.50
77413;PMS7003;66486;49.992;19.164;2023-05-10T05:23:42;11.60;11.60;10.00
77413;PMS7003;66486;49.992;19.164;2023-05-10T05:26:08;14.40;13.00;10.00
77413;PMS7003;66486;49.992;19.164;2023-05-10T05:28:35;20.60;19.00;15.60
77413;PMS7003;66486;49.992;19.164;2023-05-10T05:31:03;19.40;19.40;13.80
77413;PMS7003;66486;49.992;19.164;2023-05-10T05:33:30;15.60;14.60;10.80
77413;PMS7003;66486;49.992;19.164;2023-05-10T05:35:55;23.50;22.00;13.50
77413;PMS7003;66486;49.992;19.164;2023-05-10T05:38:22;17.60;17.60;13.60
77413;PMS7003;66486;49.992;19.164;2023-05-10T05:40:48;22.80;21.80;15.60
77413;PMS7003;66486;49.992;19.164;2023-05-10T05:43:15;18.20;16.80;12.00
77413;PMS7003;66486;49.992;19.164;2023-05-10T05:45:40;17.00;17.00;12.75
77413;PMS7003;66486;49.992;19.164;2023-05-10T05:48:06;12.00;10.80;9.60
77413;PMS7003;66486;49.992;19.164;2023-05-10T05:50:32;10.50;10.50;7.50
77413;PMS7003;66486;49.992;19.164;2023-05-10T05:52:58;18.00;14.20;10.80
77413;PMS7003;66486;49.992;19.164;2023-05-10T05:55:24;15.00;15.00;12.00
77413;PMS7003;66486;49.992;19.164;2023-05-10T05:57:51;15.00;15.00;12.40
77413;PMS7003;66486;49.992;19.164;2023-05-10T06:00:17;21.00;19.50;12.00
77413;PMS7003;66486;49.992;19.164;2023-05-10T06:02:43;10.40;10.40;9.20
77413;PMS7003;66486;49.992;19.164;2023-05-10T06:05:09;13.00;13.00;10.00
77413;PMS7003;66486;49.992;19.164;2023-05-10T06:07:35;13.20;13.20;10.20
77413;PMS7003;66486;49.992;19.164;2023-05-10T06:10:01;16.20;16.20;13.00
77413;PMS7003;66486;49.992;19.164;2023-05-10T06:12:28;17.20;17.20;13.00
77413;PMS7003;66486;49.992;19.164;2023-05-10T06:14:54;14.25;14.25;10.00
77413;PMS7003;66486;49.992;19.164;2023-05-10T06:17:20;14.40;14.40;11.00
77413;PMS7003;66486;49.992;19.164;2023-05-10T06:19:46;17.00;16.60;13.40
77413;PMS7003;66486;49.992;19.164;2023-05-10T06:22:13;16.80;16.80;11.80
77413;PMS7003;66486;49.992;19.164;2023-05-10T06:24:38;16.75;16.75;12.00
77413;PMS7003;66486;49.992;19.164;2023-05-10T06:27:05;13.00;13.00;10.60
77413;PMS7003;66486;49.992;19.164;2023-05-10T06:29:31;12.00;12.00;10.00
77413;PMS7003;66486;49.992;19.164;2023-05-10T06:31:57;15.80;15.80;12.20
77413;PMS7003;66486;49.992;19.164;2023-05-10T06:34:24;14.60;14.20;10.60
77413;PMS7003;66486;49.992;19.164;2023-05-10T06:36:50;14.20;14.20;11.40
77413;PMS7003;66486;49.992;19.164;2023-05-10T06:39:16;17.60;16.40;12.20
77413;PMS7003;66486;49.992;19.164;2023-05-10T06:41:43;15.00;14.60;12.40
77413;PMS7003;66486;49.992;19.164;2023-05-10T06:44:08;16.25;16.25;11.25
77413;PMS7003;66486;49.992;19.164;2023-05-10T06:46:34;18.60;17.40;12.20
77413;PMS7003;66486;49.992;19.164;2023-05-10T06:49:00;16.75;16.75;12.00
77413;PMS7003;66486;49.992;19.164;2023-05-10T06:51:26;19.40;18.00;15.80
77413;PMS7003;66486;49.992;19.164;2023-05-10T06:53:52;15.25;15.25;10.50
77413;PMS7003;66486;49.992;19.164;2023-05-10T06:56:18;19.80;19.80;13.60
77413;PMS7003;66486;49.992;19.164;2023-05-10T06:58:47;12.80;12.80;9.20
77413;PMS7003;66486;49.992;19.164;2023-05-10T07:01:14;21.50;21.00;15.25
77413;PMS7003;66486;49.992;19.164;2023-05-10T07:03:40;18.60;18.60;13.40
77413;PMS7003;66486;49.992;19.164;2023-05-10T07:06:06;20.60;20.60;14.00
77413;PMS7003;66486;49.992;19.164;2023-05-10T07:08:32;14.25;14.00;10.00
77413;PMS7003;66486;49.992;19.164;2023-05-10T07:11:00;13.00;13.00;11.50
77413;PMS7003;66486;49.992;19.164;2023-05-10T07:13:30;15.00;15.00;12.00
77413;PMS7003;66486;49.992;19.164;2023-05-10T07:15:57;20.40;19.00;16.20
77413;PMS7003;66486;49.992;19.164;2023-05-10T07:18:24;19.80;18.80;13.00
77413;PMS7003;66486;49.992;19.164;2023-05-10T07:20:51;16.20;16.20;14.00
77413;PMS7003;66486;49.992;19.164;2023-05-10T07:23:16;21.00;20.75;15.25
77413;PMS7003;66486;49.992;19.164;2023-05-10T07:25:46;19.25;19.25;14.25
77413;PMS7003;66486;49.992;19.164;2023-05-10T07:28:16;23.25;22.75;15.75
77413;PMS7003;66486;49.992;19.164;2023-05-10T07:30:42;24.25;22.75;15.75
77413;PMS7003;66486;49.992;19.164;2023-05-10T07:33:08;16.67;16.67;12.33
77413;PMS7003;66486;49.992;19.164;2023-05-10T07:35:36;16.75;15.50;11.75
77413;PMS7003;66486;49.992;19.164;2023-05-10T07:38:02;19.33;19.33;13.67
77413;PMS7003;66486;49.992;19.164;2023-05-10T07:40:28;20.33;18.33;13.67
77413;PMS7003;66486;49.992;19.164;2023-05-10T07:42:55;14.50;14.50;11.75
77413;PMS7003;66486;49.992;19.164;2023-05-10T07:45:21;13.00;13.00;11.00
77413;PMS7003;66486;49.992;19.164;2023-05-10T07:47:47;15.00;15.00;13.25
77413;PMS7003;66486;49.992;19.164;2023-05-10T07:50:13;18.25;18.00;12.25
77413;PMS7003;66486;49.992;19.164;2023-05-10T07:52:39;12.75;12.25;10.50
77413;PMS7003;66486;49.992;19.164;2023-05-10T07:55:06;15.25;15.00;11.75
77413;PMS7003;66486;49.992;19.164;2023-05-10T07:57:33;13.50;13.50;11.25
77413;PMS7003;66486;49.992;19.164;2023-05-10T08:00:00;13.50;13.50;11.75
77413;PMS7003;66486;49.992;19.164;2023-05-10T08:02:26;18.75;18.00;12.00
77413;PMS7003;66486;49.992;19.164;2023-05-10T08:04:52;14.50;14.50;10.50
77413;PMS7003;66486;49.992;19.164;2023-05-10T08:07:18;14.33;14.33;12.00
77413;PMS7003;66486;49.992;19.164;2023-05-10T08:09:44;16.50;16.50;10.75
77413;PMS7003;66486;49.992;19.164;2023-05-10T08:12:10;16.00;14.67;9.33
77413;PMS7003;66486;49.992;19.164;2023-05-10T08:14:36;10.50;10.50;8.00
77413;PMS7003;66486;49.992;19.164;2023-05-10T08:17:02;13.50;13.50;9.00
77413;PMS7003;66486;49.992;19.164;2023-05-10T08:19:29;11.75;11.75;8.25
77413;PMS7003;66486;49.992;19.164;2023-05-10T08:21:55;10.00;10.00;7.67
77413;PMS7003;66486;49.992;19.164;2023-05-10T08:24:21;12.00;11.50;9.00
77413;PMS7003;66486;49.992;19.164;2023-05-10T08:26:48;12.75;11.50;8.00
77413;PMS7003;66486;49.992;19.164;2023-05-10T08:29:14;10.00;9.50;8.00
77413;PMS7003;66486;49.992;19.164;2023-05-10T08:31:40;7.50;7.50;6.00
77413;PMS7003;66486;49.992;19.164;2023-05-10T08:34:06;8.00;8.00;6.25
77413;PMS7003;66486;49.992;19.164;2023-05-10T08:36:32;7.67;7.67;6.33
77413;PMS7003;66486;49.992;19.164;2023-05-10T08:38:58;9.50;9.50;8.00
77413;PMS7003;66486;49.992;19.164;2023-05-10T08:41:24;7.67;7.67;7.00
77413;PMS7003;66486;49.992;19.164;2023-05-10T08:43:54;9.00;8.00;7.00
77413;PMS7003;66486;49.992;19.164;2023-05-10T08:46:20;9.00;7.75;6.00
77413;PMS7003;66486;49.992;19.164;2023-05-10T08:48:48;6.50;6.50;6.25
77413;PMS7003;66486;49.992;19.164;2023-05-10T08:51:35;5.75;5.75;4.00
77413;PMS7003;66486;49.992;19.164;2023-05-10T08:54:05;7.25;7.25;5.25
77413;PMS7003;66486;49.992;19.164;2023-05-10T08:56:31;6.00;6.00;4.25
77413;PMS7003;66486;49.992;19.164;2023-05-10T08:58:58;5.50;5.50;5.00
77413;PMS7003;66486;49.992;19.164;2023-05-10T09:01:24;5.25;5.25;4.00
77413;PMS7003;66486;49.992;19.164;2023-05-10T09:03:52;10.00;10.00;7.00
77413;PMS7003;66486;49.992;19.164;2023-05-10T09:06:18;7.75;7.75;6.00
77413;PMS7003;66486;49.992;19.164;2023-05-10T09:08:45;7.75;7.75;5.00
77413;PMS7003;66486;49.992;19.164;2023-05-10T09:11:11;7.00;7.00;5.00
77413;PMS7003;66486;49.992;19.164;2023-05-10T09:13:38;6.25;5.00;4.75
77413;PMS7003;66486;49.992;19.164;2023-05-10T09:16:04;7.50;7.50;5.00
77413;PMS7003;66486;49.992;19.164;2023-05-10T09:18:31;3.25;3.25;3.00
77413;PMS7003;66486;49.992;19.164;2023-05-10T09:20:57;4.33;4.33;4.00
77413;PMS7003;66486;49.992;19.164;2023-05-10T09:23:23;4.00;4.00;3.75
77413;PMS7003;66486;49.992;19.164;2023-05-10T09:26:03;7.25;7.25;4.75
77413;PMS7003;66486;49.992;19.164;2023-05-10T09:28:34;6.50;6.00;5.00
77413;PMS7003;66486;49.992;19.164;2023-05-10T09:31:15;7.00;7.00;5.00
77413;PMS7003;66486;49.992;19.164;2023-05-10T09:33:45;6.75;6.75;5.00
77413;PMS7003;66486;49.992;19.164;2023-05-10T09:36:11;5.00;5.00;4.75
77413;PMS7003;66486;49.992;19.164;2023-05-10T09:38:48;8.00;8.00;5.00
77413;PMS7003;66486;49.992;19.164;2023-05-10T09:41:19;5.25;5.25;4.50
77413;PMS7003;66486;49.992;19.164;2023-05-10T09:43:47;5.00;5.00;4.00
77413;PMS7003;66486;49.992;19.164;2023-05-10T09:46:13;8.25;7.00;5.00
77413;PMS7003;66486;49.992;19.164;2023-05-10T09:48:45;6.75;6.75;5.00
77413;PMS7003;66486;49.992;19.164;2023-05-10T09:51:19;5.50;5.00;4.25
77413;PMS7003;66486;49.992;19.164;2023-05-10T09:54:09;8.75;6.00;5.00
77413;PMS7003;66486;49.992;19.164;2023-05-10T09:56:35;4.75;4.75;4.00
77413;PMS7003;66486;49.992;19.164;2023-05-10T09:59:04;3.25;3.25;2.00
77413;PMS7003;66486;49.992;19.164;2023-05-10T10:01:31;7.50;7.50;4.25
77413;PMS7003;66486;49.992;19.164;2023-05-10T10:03:58;4.25;4.25;4.25
77413;PMS7003;66486;49.992;19.164;2023-05-10T10:06:24;4.00;4.00;3.50
77413;PMS7003;66486;49.992;19.164;2023-05-10T10:08:51;5.75;5.75;5.00
77413;PMS7003;66486;49.992;19.164;2023-05-10T10:11:17;7.50;5.00;4.75
77413;PMS7003;66486;49.992;19.164;2023-05-10T10:13:43;11.00;11.00;9.00
77413;PMS7003;66486;49.992;19.164;2023-05-10T10:16:09;4.50;4.50;4.50
77413;PMS7003;66486;49.992;19.164;2023-05-10T10:18:36;8.50;8.50;7.00
77413;PMS7003;66486;49.992;19.164;2023-05-10T10:21:08;10.75;10.75;8.00
77413;PMS7003;66486;49.992;19.164;2023-05-10T10:23:35;5.75;5.75;4.75
77413;PMS7003;66486;49.992;19.164;2023-05-10T10:26:02;4.75;4.75;4.25
77413;PMS7003;66486;49.992;19.164;2023-05-10T10:31:34;5.25;5.25;3.75
77413;PMS7003;66486;49.992;19.164;2023-05-10T10:34:06;4.25;4.25;3.50
77413;PMS7003;66486;49.992;19.164;2023-05-10T10:36:44;6.40;5.20;4.00
77413;PMS7003;66486;49.992;19.164;2023-05-10T10:39:12;5.00;5.00;4.00
77413;PMS7003;66486;49.992;19.164;2023-05-10T10:41:40;5.75;5.00;4.00
77413;PMS7003;66486;49.992;19.164;2023-05-10T10:46:59;5.50;5.50;4.75
77413;PMS7003;66486;49.992;19.164;2023-05-10T10:52:13;3.75;3.75;3.00
77413;PMS7003;66486;49.992;19.164;2023-05-10T10:54:59;3.00;3.00;2.50
77413;PMS7003;66486;49.992;19.164;2023-05-10T11:00:26;4.60;4.60;4.00
77413;PMS7003;66486;49.992;19.164;2023-05-10T11:02:57;4.75;4.75;4.00
77413;PMS7003;66486;49.992;19.164;2023-05-10T11:05:24;4.00;4.00;3.00
77413;PMS7003;66486;49.992;19.164;2023-05-10T11:07:51;5.00;5.00;4.00
77413;PMS7003;66486;49.992;19.164;2023-05-10T11:10:20;3.60;3.60;3.00
77413;PMS7003;66486;49.992;19.164;2023-05-10T11:15:28;4.00;4.00;3.50
77413;PMS7003;66486;49.992;19.164;2023-05-10T11:17:58;4.00;4.00;3.20
77413;PMS7003;66486;49.992;19.164;2023-05-10T11:20:28;3.50;3.50;3.00
77413;PMS7003;66486;49.992;19.164;2023-05-10T11:23:10;3.40;3.40;3.20
77413;PMS7003;66486;49.992;19.164;2023-05-10T11:25:44;3.00;3.00;2.60
77413;PMS7003;66486;49.992;19.164;2023-05-10T11:28:14;4.00;4.00;3.00
77413;PMS7003;66486;49.992;19.164;2023-05-10T11:30:43;3.00;3.00;2.20
77413;PMS7003;66486;49.992;19.164;2023-05-10T11:33:14;4.00;4.00;3.50
77413;PMS7003;66486;49.992;19.164;2023-05-10T11:35:42;5.60;5.60;4.60
77413;PMS7003;66486;49.992;19.164;2023-05-10T11:38:08;3.00;3.00;3.00
77413;PMS7003;66486;49.992;19.164;2023-05-10T11:40:36;4.40;4.40;3.00
77413;PMS7003;66486;49.992;19.164;2023-05-10T11:43:03;0.00;0.00;0.00
77413;PMS7003;66486;49.992;19.164;2023-05-10T11:45:34;4.00;4.00;4.00
77413;PMS7003;66486;49.992;19.164;2023-05-10T11:48:01;4.00;4.00;3.00
77413;PMS7003;66486;49.992;19.164;2023-05-10T11:50:28;4.60;4.60;4.40
77413;PMS7003;66486;49.992;19.164;2023-05-10T11:52:55;4.00;4.00;3.60
77413;PMS7003;66486;49.992;19.164;2023-05-10T11:55:22;4.00;4.00;3.00
77413;PMS7003;66486;49.992;19.164;2023-05-10T11:57:53;3.40;3.40;3.00
77413;PMS7003;66486;49.992;19.164;2023-05-10T12:00:20;4.00;4.00;3.00
77413;PMS7003;66486;49.992;19.164;2023-05-10T12:02:47;3.60;3.60;3.00
77413;PMS7003;66486;49.992;19.164;2023-05-10T12:05:13;4.80;4.80;3.80
77413;PMS7003;66486;49.992;19.164;2023-05-10T12:07:40;4.00;4.00;3.00
77413;PMS7003;66486;49.992;19.164;2023-05-10T12:12:40;3.00;3.00;3.00
77413;PMS7003;66486;49.992;19.164;2023-05-10T12:15:11;4.00;4.00;3.25
77413;PMS7003;66486;49.992;19.164;2023-05-10T12:17:43;4.00;4.00;3.20
77413;PMS7003;66486;49.992;19.164;2023-05-10T12:20:13;4.00;4.00;4.00
77413;PMS7003;66486;49.992;19.164;2023-05-10T12:22:51;4.50;4.50;3.50
77413;PMS7003;66486;49.992;19.164;2023-05-10T12:25:17;4.00;4.00;3.60
77413;PMS7003;66486;49.992;19.164;2023-05-10T12:27:48;2.00;2.00;2.00
77413;PMS7003;66486;49.992;19.164;2023-05-10T12:30:20;3.00;3.00;3.00
77413;PMS7003;66486;49.992;19.164;2023-05-10T12:32:50;3.75;3.75;3.00
77413;PMS7003;66486;49.992;19.164;2023-05-10T12:35:17;5.25;5.25;4.00
77413;PMS7003;66486;49.992;19.164;2023-05-10T12:37:50;4.80;4.80;4.00
77413;PMS7003;66486;49.992;19.164;2023-05-10T12:40:16;4.00;4.00;3.60
77413;PMS7003;66486;49.992;19.164;2023-05-10T12:42:43;3.50;3.50;3.00
77413;PMS7003;66486;49.992;19.164;2023-05-10T12:45:10;3.00;3.00;2.40
77413;PMS7003;66486;49.992;19.164;2023-05-10T12:47:36;3.00;3.00;3.00
77413;PMS7003;66486;49.992;19.164;2023-05-10T12:50:03;4.00;4.00;4.00
77413;PMS7003;66486;49.992;19.164;2023-05-10T12:52:30;4.00;4.00;3.40
77413;PMS7003;66486;49.992;19.164;2023-05-10T12:54:58;4.20;4.20;3.20
77413;PMS7003;66486;49.992;19.164;2023-05-10T12:57:25;3.20;3.20;2.60
77413;PMS7003;66486;49.992;19.164;2023-05-10T12:59:51;5.00;5.00;4.67
77413;PMS7003;66486;49.992;19.164;2023-05-10T13:02:17;3.00;3.00;3.00
77413;PMS7003;66486;49.992;19.164;2023-05-10T13:04:46;4.00;4.00;3.75
77413;PMS7003;66486;49.992;19.164;2023-05-10T13:07:13;4.00;4.00;3.40
77413;PMS7003;66486;49.992;19.164;2023-05-10T13:09:39;1.00;0.00;0.00
77413;PMS7003;66486;49.992;19.164;2023-05-10T13:12:05;3.00;3.00;3.00
77413;PMS7003;66486;49.992;19.164;2023-05-10T13:14:31;3.20;3.20;2.40
77413;PMS7003;66486;49.992;19.164;2023-05-10T13:16:57;4.00;4.00;3.00
77413;PMS7003;66486;49.992;19.164;2023-05-10T13:19:23;4.25;4.00;3.25
77413;PMS7003;66486;49.992;19.164;2023-05-10T13:21:50;6.00;5.50;4.75
77413;PMS7003;66486;49.992;19.164;2023-05-10T13:24:15;3.67;3.67;3.00
77413;PMS7003;66486;49.992;19.164;2023-05-10T13:26:43;4.25;4.25;4.00
77413;PMS7003;66486;49.992;19.164;2023-05-10T13:29:09;5.50;5.50;5.25
77413;PMS7003;66486;49.992;19.164;2023-05-10T13:31:35;3.00;3.00;3.00
77413;PMS7003;66486;49.992;19.164;2023-05-10T13:34:01;5.25;4.50;3.50
77413;PMS7003;66486;49.992;19.164;2023-05-10T13:36:28;4.00;4.00;4.00
77413;PMS7003;66486;49.992;19.164;2023-05-10T13:38:54;3.00;3.00;3.00
77413;PMS7003;66486;49.992;19.164;2023-05-10T13:41:20;3.25;3.25;3.00
77413;PMS7003;66486;49.992;19.164;2023-05-10T13:43:46;6.00;6.00;4.00
77413;PMS7003;66486;49.992;19.164;2023-05-10T13:46:14;4.25;4.25;4.00
77413;PMS7003;66486;49.992;19.164;2023-05-10T13:48:40;4.67;4.67;4.00
77413;PMS7003;66486;49.992;19.164;2023-05-10T13:51:06;5.00;5.00;4.25
77413;PMS7003;66486;49.992;19.164;2023-05-10T13:53:32;5.00;5.00;4.75
77413;PMS7003;66486;49.992;19.164;2023-05-10T13:55:58;3.75;3.75;3.00
77413;PMS7003;66486;49.992;19.164;2023-05-10T13:58:24;4.00;4.00;4.00
77413;PMS7003;66486;49.992;19.164;2023-05-10T14:00:50;4.00;4.00;3.00
77413;PMS7003;66486;49.992;19.164;2023-05-10T14:03:16;4.00;4.00;4.00
77413;PMS7003;66486;49.992;19.164;2023-05-10T14:05:43;4.00;4.00;3.50
77413;PMS7003;66486;49.992;19.164;2023-05-10T14:08:10;4.00;4.00;3.50
77413;PMS7003;66486;49.992;19.164;2023-05-10T14:10:36;5.00;4.00;4.00
77413;PMS7003;66486;49.992;19.164;2023-05-10T14:13:03;4.00;4.00;4.00
77413;PMS7003;66486;49.992;19.164;2023-05-10T14:15:29;4.00;4.00;3.00
77413;PMS7003;66486;49.992;19.164;2023-05-10T14:17:55;3.00;3.00;3.00
77413;PMS7003;66486;49.992;19.164;2023-05-10T14:20:21;5.00;5.00;4.00
77413;PMS7003;66486;49.992;19.164;2023-05-10T14:22:47;3.00;3.00;2.67
77413;PMS7003;66486;49.992;19.164;2023-05-10T14:25:13;3.50;3.50;3.00